sensor_id;sensor_type;location;lat;lon;timestamp;P1;durP1;ratioP1;P2;durP2;ratioP2
7193;SDS011;3638;48.820;9.244;2022-09-09T00:02:24;7.90;;;3.20;;
7193;SDS011;3638;48.820;9.244;2022-09-09T00:04:58;5.93;;;3.43;;
7193;SDS011;3638;48.820;9.244;2022-09-09T00:07:34;6.43;;;3.30;;
7193;SDS011;3638;48.820;9.244;2022-09-09T00:10:13;6.37;;;3.23;;
7193;SDS011;3638;48.820;9.244;2022-09-09T00:12:48;9.00;;;3.87;;
7193;SDS011;3638;48.820;9.244;2022-09-09T00:15:26;7.13;;;3.87;;
7193;SDS011;3638;48.820;9.244;2022-09-09T00:18:01;5.50;;;3.40;;
7193;SDS011;3638;48.820;9.244;2022-09-09T00:20:41;6.23;;;3.27;;
7193;SDS011;3638;48.820;9.244;2022-09-09T00:23:17;7.23;;;4.10;;
7193;SDS011;3638;48.820;9.244;2022-09-09T00:25:53;6.17;;;3.83;;
7193;SDS011;3638;48.820;9.244;2022-09-09T00:28:29;6.23;;;3.33;;
7193;SDS011;3638;48.820;9.244;2022-09-09T00:31:01;7.90;;;3.43;;
7193;SDS011;3638;48.820;9.244;2022-09-09T00:33:40;7.67;;;3.57;;
7193;SDS011;3638;48.820;9.244;2022-09-09T00:36:11;4.47;;;2.90;;
7193;SDS011;3638;48.820;9.244;2022-09-09T00:38:42;5.77;;;3.10;;
7193;SDS011;3638;48.820;9.244;2022-09-09T00:41:15;4.37;;;2.60;;
7193;SDS011;3638;48.820;9.244;2022-09-09T00:43:50;5.73;;;2.90;;
7193;SDS011;3638;48.820;9.244;2022-09-09T00:46:32;6.00;;;2.63;;
7193;SDS011;3638;48.820;9.244;2022-09-09T00:49:22;6.70;;;3.00;;
7193;SDS011;3638;48.820;9.244;2022-09-09T00:52:03;4.57;;;2.50;;
7193;SDS011;3638;48.820;9.244;2022-09-09T00:54:47;3.50;;;2.60;;
7193;SDS011;3638;48.820;9.244;2022-09-09T00:57:25;4.87;;;2.73;;
7193;SDS011;3638;48.820;9.244;2022-09-09T01:02:48;11.57;;;3.20;;
7193;SDS011;3638;48.820;9.244;2022-09-09T01:05:33;4.80;;;2.57;;
7193;SDS011;3638;48.820;9.244;2022-09-09T01:08:10;6.27;;;2.60;;
7193;SDS011;3638;48.820;9.244;2022-09-09T01:10:50;6.25;;;2.40;;
7193;SDS011;3638;48.820;9.244;2022-09-09T01:13:22;4.77;;;2.27;;
7193;SDS011;3638;48.820;9.244;2022-09-09T01:15:52;3.93;;;2.03;;
7193;SDS011;3638;48.820;9.244;2022-09-09T01:18:21;3.97;;;2.00;;
7193;SDS011;3638;48.820;9.244;2022-09-09T01:20:55;2.38;;;1.92;;
7193;SDS011;3638;48.820;9.244;2022-09-09T01:26:35;4.80;;;2.30;;
7193;SDS011;3638;48.820;9.244;2022-09-09T01:29:07;4.18;;;2.13;;
7193;SDS011;3638;48.820;9.244;2022-09-09T01:31:37;3.17;;;1.95;;
7193;SDS011;3638;48.820;9.244;2022-09-09T01:34:10;3.63;;;2.17;;
7193;SDS011;3638;48.820;9.244;2022-09-09T01:36:39;2.47;;;1.83;;
7193;SDS011;3638;48.820;9.244;2022-09-09T01:39:13;3.20;;;2.17;;
7193;SDS011;3638;48.820;9.244;2022-09-09T01:41:42;5.22;;;3.22;;
7193;SDS011;3638;48.820;9.244;2022-09-09T01:44:09;4.35;;;2.70;;
7193;SDS011;3638;48.820;9.244;2022-09-09T01:46:37;3.35;;;2.30;;
7193;SDS011;3638;48.820;9.244;2022-09-09T01:49:05;3.70;;;2.05;;
7193;SDS011;3638;48.820;9.244;2022-09-09T01:51:33;3.08;;;1.92;;
7193;SDS011;3638;48.820;9.244;2022-09-09T01:54:01;3.97;;;2.03;;
7193;SDS011;3638;48.820;9.244;2022-09-09T01:56:32;2.50;;;1.80;;
7193;SDS011;3638;48.820;9.244;2022-09-09T01:59:19;2.55;;;1.77;;
7193;SDS011;3638;48.820;9.244;2022-09-09T02:02:04;1.85;;;1.60;;
7193;SDS011;3638;48.820;9.244;2022-09-09T02:04:39;6.73;;;2.07;;
7193;SDS011;3638;48.820;9.244;2022-09-09T02:07:12;3.28;;;2.00;;
7193;SDS011;3638;48.820;9.244;2022-09-09T02:09:55;2.73;;;2.00;;
7193;SDS011;3638;48.820;9.244;2022-09-09T02:12:29;3.60;;;1.70;;
7193;SDS011;3638;48.820;9.244;2022-09-09T02:14:59;2.63;;;1.77;;
7193;SDS011;3638;48.820;9.244;2022-09-09T02:17:31;2.83;;;1.83;;
7193;SDS011;3638;48.820;9.244;2022-09-09T02:20:03;3.80;;;2.23;;
7193;SDS011;3638;48.820;9.244;2022-09-09T02:22:34;2.63;;;1.93;;
7193;SDS011;3638;48.820;9.244;2022-09-09T02:25:05;4.60;;;2.03;;
7193;SDS011;3638;48.820;9.244;2022-09-09T02:27:36;3.50;;;2.17;;
7193;SDS011;3638;48.820;9.244;2022-09-09T02:30:03;3.03;;;1.80;;
7193;SDS011;3638;48.820;9.244;2022-09-09T02:32:32;3.83;;;2.10;;
7193;SDS011;3638;48.820;9.244;2022-09-09T02:35:02;6.97;;;2.40;;
7193;SDS011;3638;48.820;9.244;2022-09-09T02:37:34;2.97;;;1.93;;
7193;SDS011;3638;48.820;9.244;2022-09-09T02:40:04;4.20;;;2.37;;
7193;SDS011;3638;48.820;9.244;2022-09-09T02:42:39;2.90;;;1.97;;
7193;SDS011;3638;48.820;9.244;2022-09-09T02:45:08;4.67;;;1.93;;
7193;SDS011;3638;48.820;9.244;2022-09-09T02:47:41;3.27;;;2.00;;
7193;SDS011;3638;48.820;9.244;2022-09-09T02:50:16;4.57;;;2.37;;
7193;SDS011;3638;48.820;9.244;2022-09-09T02:52:55;4.23;;;2.10;;
7193;SDS011;3638;48.820;9.244;2022-09-09T02:55:35;3.93;;;2.20;;
7193;SDS011;3638;48.820;9.244;2022-09-09T02:58:08;3.67;;;2.30;;
7193;SDS011;3638;48.820;9.244;2022-09-09T03:00:42;2.80;;;2.00;;
7193;SDS011;3638;48.820;9.244;2022-09-09T03:03:11;3.63;;;2.30;;
7193;SDS011;3638;48.820;9.244;2022-09-09T03:05:38;3.80;;;2.20;;
7193;SDS011;3638;48.820;9.244;2022-09-09T03:08:05;4.63;;;2.60;;
7193;SDS011;3638;48.820;9.244;2022-09-09T03:10:32;4.93;;;2.50;;
7193;SDS011;3638;48.820;9.244;2022-09-09T03:13:00;3.43;;;2.43;;
7193;SDS011;3638;48.820;9.244;2022-09-09T03:15:28;2.77;;;1.93;;
7193;SDS011;3638;48.820;9.244;2022-09-09T03:17:56;3.27;;;2.27;;
7193;SDS011;3638;48.820;9.244;2022-09-09T03:20:23;2.40;;;2.20;;
7193;SDS011;3638;48.820;9.244;2022-09-09T03:22:51;4.33;;;2.70;;
7193;SDS011;3638;48.820;9.244;2022-09-09T03:25:19;6.17;;;2.60;;
7193;SDS011;3638;48.820;9.244;2022-09-09T03:27:49;3.70;;;1.90;;
7193;SDS011;3638;48.820;9.244;2022-09-09T03:30:19;2.60;;;1.93;;
7193;SDS011;3638;48.820;9.244;2022-09-09T03:32:47;2.33;;;1.50;;
7193;SDS011;3638;48.820;9.244;2022-09-09T03:35:14;1.90;;;1.60;;
7193;SDS011;3638;48.820;9.244;2022-09-09T03:37:42;4.07;;;2.10;;
7193;SDS011;3638;48.820;9.244;2022-09-09T03:40:09;3.47;;;1.90;;
7193;SDS011;3638;48.820;9.244;2022-09-09T03:42:37;3.43;;;1.97;;
7193;SDS011;3638;48.820;9.244;2022-09-09T03:45:05;6.07;;;1.70;;
7193;SDS011;3638;48.820;9.244;2022-09-09T03:47:35;4.03;;;1.73;;
7193;SDS011;3638;48.820;9.244;2022-09-09T03:50:04;4.23;;;1.77;;
7193;SDS011;3638;48.820;9.244;2022-09-09T03:52:34;3.77;;;1.70;;
7193;SDS011;3638;48.820;9.244;2022-09-09T03:55:01;2.47;;;1.80;;
7193;SDS011;3638;48.820;9.244;2022-09-09T03:57:29;3.23;;;1.83;;
7193;SDS011;3638;48.820;9.244;2022-09-09T03:59:56;4.40;;;2.07;;
7193;SDS011;3638;48.820;9.244;2022-09-09T04:02:26;3.77;;;2.13;;
7193;SDS011;3638;48.820;9.244;2022-09-09T04:04:52;3.20;;;1.90;;
7193;SDS011;3638;48.820;9.244;2022-09-09T04:07:21;3.93;;;1.83;;
7193;SDS011;3638;48.820;9.244;2022-09-09T04:09:48;2.57;;;1.80;;
7193;SDS011;3638;48.820;9.244;2022-09-09T04:12:15;4.43;;;2.00;;
7193;SDS011;3638;48.820;9.244;2022-09-09T04:14:43;2.97;;;2.07;;
7193;SDS011;3638;48.820;9.244;2022-09-09T04:17:10;2.90;;;1.80;;
7193;SDS011;3638;48.820;9.244;2022-09-09T04:19:36;4.57;;;2.20;;
7193;SDS011;3638;48.820;9.244;2022-09-09T04:22:03;2.87;;;2.00;;
7193;SDS011;3638;48.820;9.244;2022-09-09T04:24:32;3.23;;;2.00;;
7193;SDS011;3638;48.820;9.244;2022-09-09T04:27:00;4.90;;;2.17;;
7193;SDS011;3638;48.820;9.244;2022-09-09T04:29:27;3.37;;;2.17;;
7193;SDS011;3638;48.820;9.244;2022-09-09T04:31:54;5.03;;;2.27;;
7193;SDS011;3638;48.820;9.244;2022-09-09T04:34:20;4.77;;;2.00;;
7193;SDS011;3638;48.820;9.244;2022-09-09T04:36:47;4.20;;;2.20;;
7193;SDS011;3638;48.820;9.244;2022-09-09T04:39:14;3.57;;;1.90;;
7193;SDS011;3638;48.820;9.244;2022-09-09T04:41:42;2.40;;;1.80;;
7193;SDS011;3638;48.820;9.244;2022-09-09T04:44:09;3.47;;;1.80;;
7193;SDS011;3638;48.820;9.244;2022-09-09T04:46:36;2.70;;;2.10;;
7193;SDS011;3638;48.820;9.244;2022-09-09T04:49:03;4.67;;;2.20;;
7193;SDS011;3638;48.820;9.244;2022-09-09T04:51:30;3.67;;;2.00;;
7193;SDS011;3638;48.820;9.244;2022-09-09T04:53:57;3.83;;;1.90;;
7193;SDS011;3638;48.820;9.244;2022-09-09T04:56:24;4.93;;;2.07;;
7193;SDS011;3638;48.820;9.244;2022-09-09T04:58:54;4.33;;;2.00;;
7193;SDS011;3638;48.820;9.244;2022-09-09T05:01:21;3.77;;;2.00;;
7193;SDS011;3638;48.820;9.244;2022-09-09T05:03:49;3.07;;;2.03;;
7193;SDS011;3638;48.820;9.244;2022-09-09T05:06:18;3.93;;;1.90;;
7193;SDS011;3638;48.820;9.244;2022-09-09T05:08:47;4.80;;;2.50;;
7193;SDS011;3638;48.820;9.244;2022-09-09T05:11:15;4.73;;;1.80;;
7193;SDS011;3638;48.820;9.244;2022-09-09T05:13:43;2.57;;;2.00;;
7193;SDS011;3638;48.820;9.244;2022-09-09T05:16:12;2.13;;;1.90;;
7193;SDS011;3638;48.820;9.244;2022-09-09T05:18:40;3.20;;;2.23;;
7193;SDS011;3638;48.820;9.244;2022-09-09T05:21:07;4.83;;;2.53;;
7193;SDS011;3638;48.820;9.244;2022-09-09T05:23:35;4.97;;;2.80;;
7193;SDS011;3638;48.820;9.244;2022-09-09T05:26:03;5.27;;;2.60;;
7193;SDS011;3638;48.820;9.244;2022-09-09T05:28:33;4.47;;;2.30;;
7193;SDS011;3638;48.820;9.244;2022-09-09T05:31:02;5.10;;;2.70;;
7193;SDS011;3638;48.820;9.244;2022-09-09T05:33:34;3.03;;;2.10;;
7193;SDS011;3638;48.820;9.244;2022-09-09T05:36:03;2.50;;;1.80;;
7193;SDS011;3638;48.820;9.244;2022-09-09T05:38:33;4.25;;;1.95;;
7193;SDS011;3638;48.820;9.244;2022-09-09T05:41:00;4.65;;;2.00;;
7193;SDS011;3638;48.820;9.244;2022-09-09T05:43:28;3.63;;;2.20;;
7193;SDS011;3638;48.820;9.244;2022-09-09T05:46:01;6.03;;;2.15;;
7193;SDS011;3638;48.820;9.244;2022-09-09T05:48:30;7.00;;;2.25;;
7193;SDS011;3638;48.820;9.244;2022-09-09T05:51:00;3.80;;;2.30;;
7193;SDS011;3638;48.820;9.244;2022-09-09T05:53:28;4.33;;;2.00;;
7193;SDS011;3638;48.820;9.244;2022-09-09T05:56:00;7.03;;;2.20;;
7193;SDS011;3638;48.820;9.244;2022-09-09T05:58:29;4.07;;;2.30;;
7193;SDS011;3638;48.820;9.244;2022-09-09T06:01:00;2.23;;;2.00;;
7193;SDS011;3638;48.820;9.244;2022-09-09T06:03:29;3.92;;;2.30;;
7193;SDS011;3638;48.820;9.244;2022-09-09T06:06:01;4.70;;;1.98;;
7193;SDS011;3638;48.820;9.244;2022-09-09T06:08:31;6.93;;;1.95;;
7193;SDS011;3638;48.820;9.244;2022-09-09T06:11:00;5.10;;;2.10;;
7193;SDS011;3638;48.820;9.244;2022-09-09T06:13:29;4.32;;;2.00;;
7193;SDS011;3638;48.820;9.244;2022-09-09T06:15:56;3.33;;;2.03;;
7193;SDS011;3638;48.820;9.244;2022-09-09T06:18:24;2.53;;;1.70;;
7193;SDS011;3638;48.820;9.244;2022-09-09T06:20:55;2.58;;;1.70;;
7193;SDS011;3638;48.820;9.244;2022-09-09T06:23:25;3.30;;;1.90;;
7193;SDS011;3638;48.820;9.244;2022-09-09T06:26:00;2.00;;;1.80;;
7193;SDS011;3638;48.820;9.244;2022-09-09T06:28:31;5.13;;;2.08;;
7193;SDS011;3638;48.820;9.244;2022-09-09T06:30:58;4.65;;;2.00;;
7193;SDS011;3638;48.820;9.244;2022-09-09T06:33:26;3.63;;;2.10;;
7193;SDS011;3638;48.820;9.244;2022-09-09T06:35:56;3.85;;;2.38;;
7193;SDS011;3638;48.820;9.244;2022-09-09T06:38:25;4.75;;;2.10;;
7193;SDS011;3638;48.820;9.244;2022-09-09T06:40:52;4.82;;;2.22;;
7193;SDS011;3638;48.820;9.244;2022-09-09T06:43:20;5.97;;;1.98;;
7193;SDS011;3638;48.820;9.244;2022-09-09T06:45:52;3.00;;;2.00;;
7193;SDS011;3638;48.820;9.244;2022-09-09T06:48:20;3.10;;;2.03;;
7193;SDS011;3638;48.820;9.244;2022-09-09T06:50:47;4.35;;;2.00;;
7193;SDS011;3638;48.820;9.244;2022-09-09T06:53:16;4.22;;;2.03;;
7193;SDS011;3638;48.820;9.244;2022-09-09T06:55:45;4.60;;;2.00;;
7193;SDS011;3638;48.820;9.244;2022-09-09T06:58:12;5.13;;;2.17;;
7193;SDS011;3638;48.820;9.244;2022-09-09T07:00:39;7.78;;;2.63;;
7193;SDS011;3638;48.820;9.244;2022-09-09T07:03:07;4.97;;;2.20;;
7193;SDS011;3638;48.820;9.244;2022-09-09T07:05:33;5.65;;;2.28;;
7193;SDS011;3638;48.820;9.244;2022-09-09T07:08:00;3.63;;;2.28;;
7193;SDS011;3638;48.820;9.244;2022-09-09T07:10:28;7.07;;;2.30;;
7193;SDS011;3638;48.820;9.244;2022-09-09T07:12:56;4.38;;;2.22;;
7193;SDS011;3638;48.820;9.244;2022-09-09T07:15:24;2.65;;;1.83;;
7193;SDS011;3638;48.820;9.244;2022-09-09T07:17:51;3.83;;;1.77;;
7193;SDS011;3638;48.820;9.244;2022-09-09T07:20:19;1.77;;;1.52;;
7193;SDS011;3638;48.820;9.244;2022-09-09T07:22:45;2.28;;;1.70;;
7193;SDS011;3638;48.820;9.244;2022-09-09T07:25:12;3.05;;;1.85;;
7193;SDS011;3638;48.820;9.244;2022-09-09T07:27:42;4.28;;;2.00;;
7193;SDS011;3638;48.820;9.244;2022-09-09T07:30:10;4.00;;;1.85;;
7193;SDS011;3638;48.820;9.244;2022-09-09T07:32:38;3.05;;;1.80;;
7193;SDS011;3638;48.820;9.244;2022-09-09T07:35:05;8.73;;;1.95;;
7193;SDS011;3638;48.820;9.244;2022-09-09T07:37:35;3.65;;;1.73;;
7193;SDS011;3638;48.820;9.244;2022-09-09T07:40:03;3.65;;;2.03;;
7193;SDS011;3638;48.820;9.244;2022-09-09T07:42:31;4.80;;;1.95;;
7193;SDS011;3638;48.820;9.244;2022-09-09T07:44:58;3.20;;;1.80;;
7193;SDS011;3638;48.820;9.244;2022-09-09T07:47:26;3.45;;;1.85;;
7193;SDS011;3638;48.820;9.244;2022-09-09T07:49:53;4.72;;;1.90;;
7193;SDS011;3638;48.820;9.244;2022-09-09T07:52:20;3.55;;;1.92;;
7193;SDS011;3638;48.820;9.244;2022-09-09T07:54:47;3.92;;;2.00;;
7193;SDS011;3638;48.820;9.244;2022-09-09T07:57:14;5.28;;;2.10;;
7193;SDS011;3638;48.820;9.244;2022-09-09T07:59:41;4.63;;;2.50;;
7193;SDS011;3638;48.820;9.244;2022-09-09T08:02:10;4.82;;;2.30;;
7193;SDS011;3638;48.820;9.244;2022-09-09T08:04:38;5.13;;;2.17;;
7193;SDS011;3638;48.820;9.244;2022-09-09T08:07:05;2.80;;;1.98;;
7193;SDS011;3638;48.820;9.244;2022-09-09T08:09:32;4.50;;;2.30;;
7193;SDS011;3638;48.820;9.244;2022-09-09T08:11:59;5.95;;;2.30;;
7193;SDS011;3638;48.820;9.244;2022-09-09T08:14:27;3.63;;;2.28;;
7193;SDS011;3638;48.820;9.244;2022-09-09T08:16:54;4.75;;;1.80;;
7193;SDS011;3638;48.820;9.244;2022-09-09T08:19:22;5.95;;;2.00;;
7193;SDS011;3638;48.820;9.244;2022-09-09T08:21:51;5.50;;;1.88;;
7193;SDS011;3638;48.820;9.244;2022-09-09T08:24:18;5.10;;;1.60;;
7193;SDS011;3638;48.820;9.244;2022-09-09T08:26:46;3.88;;;1.55;;
7193;SDS011;3638;48.820;9.244;2022-09-09T08:29:14;3.60;;;1.70;;
7193;SDS011;3638;48.820;9.244;2022-09-09T08:31:43;5.50;;;1.90;;
7193;SDS011;3638;48.820;9.244;2022-09-09T08:34:11;2.17;;;1.50;;
7193;SDS011;3638;48.820;9.244;2022-09-09T08:36:40;8.73;;;1.67;;
7193;SDS011;3638;48.820;9.244;2022-09-09T08:39:11;2.33;;;1.48;;
7193;SDS011;3638;48.820;9.244;2022-09-09T08:41:52;4.45;;;1.50;;
7193;SDS011;3638;48.820;9.244;2022-09-09T08:44:51;4.28;;;1.60;;
7193;SDS011;3638;48.820;9.244;2022-09-09T08:47:38;2.58;;;1.50;;
7193;SDS011;3638;48.820;9.244;2022-09-09T08:50:19;3.83;;;1.67;;
7193;SDS011;3638;48.820;9.244;2022-09-09T08:52:54;4.18;;;1.55;;
7193;SDS011;3638;48.820;9.244;2022-09-09T08:55:34;6.03;;;1.30;;
7193;SDS011;3638;48.820;9.244;2022-09-09T08:58:09;3.35;;;1.60;;
7193;SDS011;3638;48.820;9.244;2022-09-09T09:00:42;2.20;;;1.10;;
7193;SDS011;3638;48.820;9.244;2022-09-09T09:03:21;2.35;;;1.30;;
7193;SDS011;3638;48.820;9.244;2022-09-09T09:05:57;3.28;;;1.40;;
7193;SDS011;3638;48.820;9.244;2022-09-09T09:08:35;2.45;;;1.65;;
7193;SDS011;3638;48.820;9.244;2022-09-09T09:11:11;3.10;;;1.60;;
7193;SDS011;3638;48.820;9.244;2022-09-09T09:13:40;3.15;;;1.67;;
7193;SDS011;3638;48.820;9.244;2022-09-09T09:16:13;5.05;;;2.10;;
7193;SDS011;3638;48.820;9.244;2022-09-09T09:18:48;3.60;;;1.95;;
7193;SDS011;3638;48.820;9.244;2022-09-09T09:21:16;4.85;;;1.73;;
7193;SDS011;3638;48.820;9.244;2022-09-09T09:23:51;5.95;;;1.95;;
7193;SDS011;3638;48.820;9.244;2022-09-09T09:26:25;3.72;;;1.23;;
7193;SDS011;3638;48.820;9.244;2022-09-09T09:28:57;2.03;;;1.20;;
7193;SDS011;3638;48.820;9.244;2022-09-09T09:31:28;4.22;;;1.40;;
7193;SDS011;3638;48.820;9.244;2022-09-09T09:33:55;3.15;;;1.30;;
7193;SDS011;3638;48.820;9.244;2022-09-09T09:36:24;4.35;;;1.35;;
7193;SDS011;3638;48.820;9.244;2022-09-09T09:39:03;3.72;;;1.30;;
7193;SDS011;3638;48.820;9.244;2022-09-09T09:41:33;3.92;;;1.42;;
7193;SDS011;3638;48.820;9.244;2022-09-09T09:44:04;3.38;;;1.42;;
7193;SDS011;3638;48.820;9.244;2022-09-09T09:46:49;2.47;;;1.13;;
7193;SDS011;3638;48.820;9.244;2022-09-09T09:49:16;2.50;;;1.10;;
7193;SDS011;3638;48.820;9.244;2022-09-09T09:51:43;2.13;;;1.17;;
7193;SDS011;3638;48.820;9.244;2022-09-09T09:54:14;1.25;;;1.02;;
7193;SDS011;3638;48.820;9.244;2022-09-09T09:56:47;1.10;;;1.00;;
7193;SDS011;3638;48.820;9.244;2022-09-09T09:59:22;1.25;;;1.00;;
7193;SDS011;3638;48.820;9.244;2022-09-09T10:02:06;1.45;;;0.90;;
7193;SDS011;3638;48.820;9.244;2022-09-09T10:04:41;2.17;;;1.10;;
7193;SDS011;3638;48.820;9.244;2022-09-09T10:07:10;3.25;;;1.48;;
7193;SDS011;3638;48.820;9.244;2022-09-09T10:09:37;2.30;;;1.20;;
7193;SDS011;3638;48.820;9.244;2022-09-09T10:12:09;1.40;;;0.88;;
7193;SDS011;3638;48.820;9.244;2022-09-09T10:14:52;1.85;;;1.10;;
7193;SDS011;3638;48.820;9.244;2022-09-09T10:17:29;1.65;;;1.38;;
7193;SDS011;3638;48.820;9.244;2022-09-09T10:20:12;1.45;;;1.20;;
7193;SDS011;3638;48.820;9.244;2022-09-09T10:22:50;1.77;;;1.25;;
7193;SDS011;3638;48.820;9.244;2022-09-09T10:25:38;3.15;;;1.50;;
7193;SDS011;3638;48.820;9.244;2022-09-09T10:31:31;1.65;;;1.20;;
7193;SDS011;3638;48.820;9.244;2022-09-09T10:34:10;6.22;;;1.50;;
7193;SDS011;3638;48.820;9.244;2022-09-09T10:36:46;4.20;;;1.38;;
7193;SDS011;3638;48.820;9.244;2022-09-09T10:39:18;2.22;;;1.25;;
7193;SDS011;3638;48.820;9.244;2022-09-09T10:42:01;2.60;;;1.27;;
7193;SDS011;3638;48.820;9.244;2022-09-09T10:44:39;2.72;;;1.60;;
7193;SDS011;3638;48.820;9.244;2022-09-09T10:47:24;2.92;;;1.50;;
7193;SDS011;3638;48.820;9.244;2022-09-09T10:53:16;4.40;;;1.40;;
7193;SDS011;3638;48.820;9.244;2022-09-09T10:55:55;5.60;;;1.52;;
7193;SDS011;3638;48.820;9.244;2022-09-09T10:58:30;3.42;;;1.40;;
7193;SDS011;3638;48.820;9.244;2022-09-09T11:01:06;3.17;;;1.30;;
7193;SDS011;3638;48.820;9.244;2022-09-09T11:03:42;3.30;;;1.42;;
7193;SDS011;3638;48.820;9.244;2022-09-09T11:06:14;3.47;;;1.40;;
7193;SDS011;3638;48.820;9.244;2022-09-09T11:08:46;2.90;;;1.20;;
7193;SDS011;3638;48.820;9.244;2022-09-09T11:11:15;6.68;;;1.75;;
7193;SDS011;3638;48.820;9.244;2022-09-09T11:13:49;2.85;;;1.40;;
7193;SDS011;3638;48.820;9.244;2022-09-09T11:16:25;4.40;;;1.38;;
7193;SDS011;3638;48.820;9.244;2022-09-09T11:18:58;1.88;;;1.38;;
7193;SDS011;3638;48.820;9.244;2022-09-09T11:21:32;3.40;;;1.40;;
7193;SDS011;3638;48.820;9.244;2022-09-09T11:24:10;1.17;;;1.08;;
7193;SDS011;3638;48.820;9.244;2022-09-09T11:26:42;3.00;;;1.15;;
7193;SDS011;3638;48.820;9.244;2022-09-09T11:32:23;2.53;;;1.35;;
7193;SDS011;3638;48.820;9.244;2022-09-09T11:35:19;3.33;;;1.60;;
7193;SDS011;3638;48.820;9.244;2022-09-09T11:38:04;2.92;;;1.52;;
7193;SDS011;3638;48.820;9.244;2022-09-09T11:40:55;4.00;;;1.75;;
7193;SDS011;3638;48.820;9.244;2022-09-09T11:43:27;2.13;;;1.23;;
7193;SDS011;3638;48.820;9.244;2022-09-09T11:45:58;3.42;;;1.23;;
7193;SDS011;3638;48.820;9.244;2022-09-09T11:48:34;2.13;;;1.27;;
7193;SDS011;3638;48.820;9.244;2022-09-09T11:51:04;3.38;;;1.42;;
7193;SDS011;3638;48.820;9.244;2022-09-09T11:53:34;1.45;;;1.08;;
7193;SDS011;3638;48.820;9.244;2022-09-09T11:56:03;2.60;;;1.13;;
7193;SDS011;3638;48.820;9.244;2022-09-09T11:58:41;2.03;;;1.13;;
7193;SDS011;3638;48.820;9.244;2022-09-09T12:01:27;2.33;;;1.05;;
7193;SDS011;3638;48.820;9.244;2022-09-09T12:07:02;1.90;;;1.10;;
7193;SDS011;3638;48.820;9.244;2022-09-09T12:09:33;3.28;;;1.30;;
7193;SDS011;3638;48.820;9.244;2022-09-09T12:12:26;2.53;;;1.05;;
7193;SDS011;3638;48.820;9.244;2022-09-09T12:14:57;1.38;;;0.93;;
7193;SDS011;3638;48.820;9.244;2022-09-09T12:17:49;1.25;;;0.82;;
7193;SDS011;3638;48.820;9.244;2022-09-09T12:20:20;0.70;;;0.70;;
7193;SDS011;3638;48.820;9.244;2022-09-09T12:22:58;0.95;;;0.70;;
7193;SDS011;3638;48.820;9.244;2022-09-09T12:25:53;1.85;;;1.08;;
7193;SDS011;3638;48.820;9.244;2022-09-09T12:28:39;1.45;;;0.93;;
7193;SDS011;3638;48.820;9.244;2022-09-09T12:31:17;2.58;;;0.80;;
7193;SDS011;3638;48.820;9.244;2022-09-09T12:33:51;1.95;;;0.98;;
7193;SDS011;3638;48.820;9.244;2022-09-09T12:36:19;1.77;;;0.80;;
7193;SDS011;3638;48.820;9.244;2022-09-09T12:38:50;3.17;;;1.20;;
7193;SDS011;3638;48.820;9.244;2022-09-09T12:41:18;2.08;;;0.93;;
7193;SDS011;3638;48.820;9.244;2022-09-09T12:43:47;3.50;;;1.13;;
7193;SDS011;3638;48.820;9.244;2022-09-09T12:46:18;2.20;;;1.10;;
7193;SDS011;3638;48.820;9.244;2022-09-09T12:48:56;1.80;;;1.13;;
7193;SDS011;3638;48.820;9.244;2022-09-09T12:51:26;1.58;;;1.13;;
7193;SDS011;3638;48.820;9.244;2022-09-09T12:53:57;1.60;;;1.05;;
7193;SDS011;3638;48.820;9.244;2022-09-09T12:56:25;1.42;;;0.90;;
7193;SDS011;3638;48.820;9.244;2022-09-09T12:58:56;1.02;;;0.85;;
7193;SDS011;3638;48.820;9.244;2022-09-09T13:01:26;1.52;;;1.10;;
7193;SDS011;3638;48.820;9.244;2022-09-09T13:03:55;4.43;;;1.30;;
7193;SDS011;3638;48.820;9.244;2022-09-09T13:06:23;3.75;;;1.20;;
7193;SDS011;3638;48.820;9.244;2022-09-09T13:08:54;1.98;;;0.85;;
7193;SDS011;3638;48.820;9.244;2022-09-09T13:11:25;1.40;;;0.90;;
7193;SDS011;3638;48.820;9.244;2022-09-09T13:14:00;2.50;;;1.17;;
7193;SDS011;3638;48.820;9.244;2022-09-09T13:16:28;2.00;;;1.17;;
7193;SDS011;3638;48.820;9.244;2022-09-09T13:18:57;2.92;;;1.67;;
7193;SDS011;3638;48.820;9.244;2022-09-09T13:21:33;3.88;;;1.20;;
7193;SDS011;3638;48.820;9.244;2022-09-09T13:24:03;2.38;;;1.30;;
7193;SDS011;3638;48.820;9.244;2022-09-09T13:26:35;1.70;;;1.02;;
7193;SDS011;3638;48.820;9.244;2022-09-09T13:29:09;1.25;;;0.88;;
7193;SDS011;3638;48.820;9.244;2022-09-09T13:31:44;2.97;;;1.38;;
7193;SDS011;3638;48.820;9.244;2022-09-09T13:34:12;1.77;;;1.40;;
7193;SDS011;3638;48.820;9.244;2022-09-09T13:36:41;1.55;;;1.00;;
7193;SDS011;3638;48.820;9.244;2022-09-09T13:39:14;2.58;;;1.10;;
7193;SDS011;3638;48.820;9.244;2022-09-09T13:41:44;3.25;;;1.38;;
7193;SDS011;3638;48.820;9.244;2022-09-09T13:44:14;3.80;;;0.95;;
7193;SDS011;3638;48.820;9.244;2022-09-09T13:46:58;2.47;;;1.17;;
7193;SDS011;3638;48.820;9.244;2022-09-09T13:49:28;2.13;;;1.02;;
7193;SDS011;3638;48.820;9.244;2022-09-09T13:52:10;2.55;;;1.10;;
7193;SDS011;3638;48.820;9.244;2022-09-09T13:54:40;2.70;;;1.25;;
7193;SDS011;3638;48.820;9.244;2022-09-09T13:57:14;2.08;;;0.98;;
7193;SDS011;3638;48.820;9.244;2022-09-09T13:59:43;1.15;;;0.82;;
7193;SDS011;3638;48.820;9.244;2022-09-09T14:02:10;3.05;;;1.30;;
7193;SDS011;3638;48.820;9.244;2022-09-09T14:04:37;2.45;;;1.50;;
7193;SDS011;3638;48.820;9.244;2022-09-09T14:07:07;2.72;;;1.30;;
7193;SDS011;3638;48.820;9.244;2022-09-09T14:09:38;2.60;;;1.00;;
7193;SDS011;3638;48.820;9.244;2022-09-09T14:12:05;1.50;;;0.98;;
7193;SDS011;3638;48.820;9.244;2022-09-09T14:14:34;2.17;;;1.02;;
7193;SDS011;3638;48.820;9.244;2022-09-09T14:17:01;3.03;;;1.20;;
7193;SDS011;3638;48.820;9.244;2022-09-09T14:19:28;5.82;;;1.00;;
7193;SDS011;3638;48.820;9.244;2022-09-09T14:21:55;1.35;;;1.10;;
7193;SDS011;3638;48.820;9.244;2022-09-09T14:24:24;2.50;;;1.02;;
7193;SDS011;3638;48.820;9.244;2022-09-09T14:26:51;1.63;;;1.00;;
7193;SDS011;3638;48.820;9.244;2022-09-09T14:29:18;1.83;;;1.00;;
7193;SDS011;3638;48.820;9.244;2022-09-09T14:31:45;3.55;;;0.90;;
7193;SDS011;3638;48.820;9.244;2022-09-09T14:34:12;2.67;;;1.25;;
7193;SDS011;3638;48.820;9.244;2022-09-09T14:36:39;2.35;;;1.23;;
7193;SDS011;3638;48.820;9.244;2022-09-09T14:39:06;1.35;;;0.80;;
7193;SDS011;3638;48.820;9.244;2022-09-09T14:41:34;1.58;;;1.00;;
7193;SDS011;3638;48.820;9.244;2022-09-09T14:44:01;2.08;;;1.00;;
7193;SDS011;3638;48.820;9.244;2022-09-09T14:46:28;1.52;;;0.93;;
7193;SDS011;3638;48.820;9.244;2022-09-09T14:48:56;1.80;;;0.80;;
7193;SDS011;3638;48.820;9.244;2022-09-09T14:51:23;1.00;;;0.80;;
7193;SDS011;3638;48.820;9.244;2022-09-09T14:53:52;2.35;;;2.00;;
7193;SDS011;3638;48.820;9.244;2022-09-09T14:56:23;1.67;;;0.85;;
7193;SDS011;3638;48.820;9.244;2022-09-09T14:58:54;2.15;;;1.08;;
7193;SDS011;3638;48.820;9.244;2022-09-09T15:01:22;1.83;;;0.90;;
7193;SDS011;3638;48.820;9.244;2022-09-09T15:03:53;2.47;;;1.08;;
7193;SDS011;3638;48.820;9.244;2022-09-09T15:06:23;1.85;;;1.00;;
7193;SDS011;3638;48.820;9.244;2022-09-09T15:08:52;1.95;;;0.77;;
7193;SDS011;3638;48.820;9.244;2022-09-09T15:11:22;1.90;;;0.98;;
7193;SDS011;3638;48.820;9.244;2022-09-09T15:13:54;3.67;;;1.40;;
7193;SDS011;3638;48.820;9.244;2022-09-09T15:16:21;1.23;;;1.10;;
7193;SDS011;3638;48.820;9.244;2022-09-09T15:18:51;3.13;;;1.10;;
7193;SDS011;3638;48.820;9.244;2022-09-09T15:21:21;1.27;;;0.98;;
7193;SDS011;3638;48.820;9.244;2022-09-09T15:23:50;1.50;;;0.80;;
7193;SDS011;3638;48.820;9.244;2022-09-09T15:26:17;1.65;;;0.80;;
7193;SDS011;3638;48.820;9.244;2022-09-09T15:28:46;2.17;;;1.10;;
7193;SDS011;3638;48.820;9.244;2022-09-09T15:31:18;2.40;;;1.20;;
7193;SDS011;3638;48.820;9.244;2022-09-09T15:33:46;1.60;;;0.80;;
7193;SDS011;3638;48.820;9.244;2022-09-09T15:36:15;1.75;;;1.10;;
7193;SDS011;3638;48.820;9.244;2022-09-09T15:38:43;1.60;;;1.20;;
7193;SDS011;3638;48.820;9.244;2022-09-09T15:41:11;1.88;;;1.00;;
7193;SDS011;3638;48.820;9.244;2022-09-09T15:43:39;0.98;;;0.73;;
7193;SDS011;3638;48.820;9.244;2022-09-09T15:46:22;1.50;;;1.10;;
7193;SDS011;3638;48.820;9.244;2022-09-09T15:48:54;1.33;;;0.70;;
7193;SDS011;3638;48.820;9.244;2022-09-09T15:51:22;2.90;;;1.17;;
7193;SDS011;3638;48.820;9.244;2022-09-09T15:53:54;0.90;;;0.77;;
7193;SDS011;3638;48.820;9.244;2022-09-09T15:56:22;0.98;;;0.85;;
7193;SDS011;3638;48.820;9.244;2022-09-09T15:58:49;1.95;;;1.17;;
7193;SDS011;3638;48.820;9.244;2022-09-09T16:01:17;2.90;;;1.00;;